sensor_id;sensor_type;location;lat;lon;timestamp;P1;durP1;ratioP1;P2;durP2;ratioP2
52574;SDS011;38468;48.114;-1.684;2023-06-14T00:00:03;24.00;;;19.17;;
52574;SDS011;38468;48.114;-1.684;2023-06-14T00:02:04;32.28;;;20.67;;
52574;SDS011;38468;48.114;-1.684;2023-06-14T00:04:08;22.52;;;19.38;;
52574;SDS011;38468;48.114;-1.684;2023-06-14T00:06:10;28.25;;;20.85;;
52574;SDS011;38468;48.114;-1.684;2023-06-14T00:08:11;23.75;;;21.08;;
52574;SDS011;38468;48.114;-1.684;2023-06-14T00:10:14;26.25;;;19.63;;
52574;SDS011;38468;48.114;-1.684;2023-06-14T00:12:18;25.02;;;21.45;;
52574;SDS011;38468;48.114;-1.684;2023-06-14T00:14:24;26.13;;;21.48;;
52574;SDS011;38468;48.114;-1.684;2023-06-14T00:16:26;24.17;;;21.25;;
52574;SDS011;38468;48.114;-1.684;2023-06-14T00:18:27;29.10;;;20.50;;
52574;SDS011;38468;48.114;-1.684;2023-06-14T00:20:32;25.02;;;20.05;;
52574;SDS011;38468;48.114;-1.684;2023-06-14T00:22:34;24.80;;;20.13;;
52574;SDS011;38468;48.114;-1.684;2023-06-14T00:24:36;25.95;;;21.70;;
52574;SDS011;38468;48.114;-1.684;2023-06-14T00:26:38;25.65;;;21.10;;
52574;SDS011;38468;48.114;-1.684;2023-06-14T00:28:38;24.08;;;21.10;;
52574;SDS011;38468;48.114;-1.684;2023-06-14T00:32:44;30.00;;;23.02;;
52574;SDS011;38468;48.114;-1.684;2023-06-14T00:36:47;24.10;;;21.52;;
52574;SDS011;38468;48.114;-1.684;2023-06-14T00:38:48;32.00;;;25.10;;
52574;SDS011;38468;48.114;-1.684;2023-06-14T00:40:48;27.58;;;24.17;;
52574;SDS011;38468;48.114;-1.684;2023-06-14T00:42:50;28.17;;;23.47;;
52574;SDS011;38468;48.114;-1.684;2023-06-14T00:44:55;27.00;;;24.23;;
52574;SDS011;38468;48.114;-1.684;2023-06-14T00:46:56;30.85;;;25.75;;
52574;SDS011;38468;48.114;-1.684;2023-06-14T00:49:00;29.65;;;25.73;;
52574;SDS011;38468;48.114;-1.684;2023-06-14T00:51:05;35.08;;;26.63;;
52574;SDS011;38468;48.114;-1.684;2023-06-14T00:53:07;30.33;;;24.63;;
52574;SDS011;38468;48.114;-1.684;2023-06-14T00:55:12;29.58;;;25.55;;
52574;SDS011;38468;48.114;-1.684;2023-06-14T00:57:13;32.33;;;28.33;;
52574;SDS011;38468;48.114;-1.684;2023-06-14T00:59:14;35.65;;;28.73;;
52574;SDS011;38468;48.114;-1.684;2023-06-14T01:01:21;35.38;;;28.67;;
52574;SDS011;38468;48.114;-1.684;2023-06-14T01:03:24;33.88;;;26.52;;
52574;SDS011;38468;48.114;-1.684;2023-06-14T01:05:25;34.07;;;28.77;;
52574;SDS011;38468;48.114;-1.684;2023-06-14T01:09:37;36.63;;;30.05;;
52574;SDS011;38468;48.114;-1.684;2023-06-14T01:11:59;33.42;;;26.83;;
52574;SDS011;38468;48.114;-1.684;2023-06-14T01:14:21;38.40;;;28.35;;
52574;SDS011;38468;48.114;-1.684;2023-06-14T01:16:24;36.85;;;30.55;;
52574;SDS011;38468;48.114;-1.684;2023-06-14T01:18:29;35.50;;;28.55;;
52574;SDS011;38468;48.114;-1.684;2023-06-14T01:20:35;38.72;;;29.20;;
52574;SDS011;38468;48.114;-1.684;2023-06-14T01:22:45;38.83;;;30.27;;
52574;SDS011;38468;48.114;-1.684;2023-06-14T01:24:56;34.17;;;27.73;;
52574;SDS011;38468;48.114;-1.684;2023-06-14T01:29:02;34.72;;;27.95;;
52574;SDS011;38468;48.114;-1.684;2023-06-14T01:31:04;37.63;;;29.67;;
52574;SDS011;38468;48.114;-1.684;2023-06-14T01:33:09;38.03;;;30.33;;
52574;SDS011;38468;48.114;-1.684;2023-06-14T01:35:10;39.97;;;29.75;;
52574;SDS011;38468;48.114;-1.684;2023-06-14T01:39:14;35.72;;;30.08;;
52574;SDS011;38468;48.114;-1.684;2023-06-14T01:41:18;39.15;;;30.13;;
52574;SDS011;38468;48.114;-1.684;2023-06-14T01:43:23;37.00;;;30.30;;
52574;SDS011;38468;48.114;-1.684;2023-06-14T01:45:26;34.80;;;27.55;;
52574;SDS011;38468;48.114;-1.684;2023-06-14T01:47:29;40.15;;;32.20;;
52574;SDS011;38468;48.114;-1.684;2023-06-14T01:49:33;48.92;;;32.05;;
52574;SDS011;38468;48.114;-1.684;2023-06-14T01:51:35;32.75;;;28.27;;
52574;SDS011;38468;48.114;-1.684;2023-06-14T01:53:36;34.17;;;27.85;;
52574;SDS011;38468;48.114;-1.684;2023-06-14T01:55:37;40.03;;;31.55;;
52574;SDS011;38468;48.114;-1.684;2023-06-14T01:57:43;40.72;;;30.75;;
52574;SDS011;38468;48.114;-1.684;2023-06-14T01:59:47;41.05;;;29.75;;
52574;SDS011;38468;48.114;-1.684;2023-06-14T02:03:56;39.28;;;31.15;;
52574;SDS011;38468;48.114;-1.684;2023-06-14T02:05:57;39.75;;;33.33;;
52574;SDS011;38468;48.114;-1.684;2023-06-14T02:07:59;36.85;;;30.02;;
52574;SDS011;38468;48.114;-1.684;2023-06-14T02:10:01;36.25;;;27.45;;
52574;SDS011;38468;48.114;-1.684;2023-06-14T02:12:05;35.08;;;28.88;;
52574;SDS011;38468;48.114;-1.684;2023-06-14T02:14:11;39.33;;;30.73;;
52574;SDS011;38468;48.114;-1.684;2023-06-14T02:16:12;38.63;;;30.20;;
52574;SDS011;38468;48.114;-1.684;2023-06-14T02:18:14;38.17;;;30.58;;
52574;SDS011;38468;48.114;-1.684;2023-06-14T02:20:17;36.33;;;29.98;;
52574;SDS011;38468;48.114;-1.684;2023-06-14T02:22:18;42.97;;;33.17;;
52574;SDS011;38468;48.114;-1.684;2023-06-14T02:24:22;37.60;;;30.63;;
52574;SDS011;38468;48.114;-1.684;2023-06-14T02:26:23;43.45;;;29.98;;
52574;SDS011;38468;48.114;-1.684;2023-06-14T02:28:29;38.97;;;30.52;;
52574;SDS011;38468;48.114;-1.684;2023-06-14T02:30:30;44.70;;;32.50;;
52574;SDS011;38468;48.114;-1.684;2023-06-14T02:32:34;47.13;;;32.50;;
52574;SDS011;38468;48.114;-1.684;2023-06-14T02:34:35;42.13;;;33.85;;
52574;SDS011;38468;48.114;-1.684;2023-06-14T02:36:37;41.92;;;33.80;;
52574;SDS011;38468;48.114;-1.684;2023-06-14T02:38:41;40.50;;;31.42;;
52574;SDS011;38468;48.114;-1.684;2023-06-14T02:40:42;44.33;;;34.43;;
52574;SDS011;38468;48.114;-1.684;2023-06-14T02:42:44;45.45;;;33.85;;
52574;SDS011;38468;48.114;-1.684;2023-06-14T02:44:48;40.13;;;32.97;;
52574;SDS011;38468;48.114;-1.684;2023-06-14T02:46:51;44.10;;;34.65;;
52574;SDS011;38468;48.114;-1.684;2023-06-14T02:48:51;45.42;;;34.67;;
52574;SDS011;38468;48.114;-1.684;2023-06-14T02:50:52;41.03;;;35.45;;
52574;SDS011;38468;48.114;-1.684;2023-06-14T02:52:56;49.20;;;38.83;;
52574;SDS011;38468;48.114;-1.684;2023-06-14T02:55:01;42.88;;;36.17;;
52574;SDS011;38468;48.114;-1.684;2023-06-14T02:57:02;48.42;;;39.03;;
52574;SDS011;38468;48.114;-1.684;2023-06-14T02:59:03;51.15;;;38.97;;
52574;SDS011;38468;48.114;-1.684;2023-06-14T03:01:04;45.05;;;35.80;;
52574;SDS011;38468;48.114;-1.684;2023-06-14T03:03:07;53.03;;;38.55;;
52574;SDS011;38468;48.114;-1.684;2023-06-14T03:05:13;44.35;;;36.55;;
52574;SDS011;38468;48.114;-1.684;2023-06-14T03:07:14;45.67;;;36.13;;
52574;SDS011;38468;48.114;-1.684;2023-06-14T03:09:19;52.50;;;37.22;;
52574;SDS011;38468;48.114;-1.684;2023-06-14T03:11:21;51.58;;;38.33;;
52574;SDS011;38468;48.114;-1.684;2023-06-14T03:13:22;47.83;;;37.23;;
52574;SDS011;38468;48.114;-1.684;2023-06-14T03:15:23;50.67;;;38.05;;
52574;SDS011;38468;48.114;-1.684;2023-06-14T03:17:24;48.67;;;37.92;;
52574;SDS011;38468;48.114;-1.684;2023-06-14T03:19:30;48.42;;;37.97;;
52574;SDS011;38468;48.114;-1.684;2023-06-14T03:21:30;44.47;;;34.30;;
52574;SDS011;38468;48.114;-1.684;2023-06-14T03:23:31;45.88;;;35.45;;
52574;SDS011;38468;48.114;-1.684;2023-06-14T03:25:32;41.45;;;33.22;;
52574;SDS011;38468;48.114;-1.684;2023-06-14T03:27:35;46.72;;;36.30;;
52574;SDS011;38468;48.114;-1.684;2023-06-14T03:29:36;52.17;;;36.40;;
52574;SDS011;38468;48.114;-1.684;2023-06-14T03:31:41;49.70;;;39.58;;
52574;SDS011;38468;48.114;-1.684;2023-06-14T03:36:01;47.70;;;35.35;;
52574;SDS011;38468;48.114;-1.684;2023-06-14T03:38:02;46.85;;;35.92;;
52574;SDS011;38468;48.114;-1.684;2023-06-14T03:40:04;45.58;;;34.80;;
52574;SDS011;38468;48.114;-1.684;2023-06-14T03:42:06;52.38;;;38.00;;
52574;SDS011;38468;48.114;-1.684;2023-06-14T03:44:07;44.92;;;35.75;;
52574;SDS011;38468;48.114;-1.684;2023-06-14T03:46:07;51.05;;;36.90;;
52574;SDS011;38468;48.114;-1.684;2023-06-14T03:48:08;45.92;;;37.67;;
52574;SDS011;38468;48.114;-1.684;2023-06-14T03:50:09;53.40;;;39.00;;
52574;SDS011;38468;48.114;-1.684;2023-06-14T03:52:10;48.72;;;37.97;;
52574;SDS011;38468;48.114;-1.684;2023-06-14T03:54:11;50.63;;;39.97;;
52574;SDS011;38468;48.114;-1.684;2023-06-14T03:56:12;51.33;;;38.22;;
52574;SDS011;38468;48.114;-1.684;2023-06-14T03:58:12;51.67;;;37.38;;
52574;SDS011;38468;48.114;-1.684;2023-06-14T04:00:13;56.15;;;37.65;;
52574;SDS011;38468;48.114;-1.684;2023-06-14T04:02:15;47.10;;;36.13;;
52574;SDS011;38468;48.114;-1.684;2023-06-14T04:04:16;52.92;;;38.58;;
52574;SDS011;38468;48.114;-1.684;2023-06-14T04:06:17;45.53;;;35.88;;
52574;SDS011;38468;48.114;-1.684;2023-06-14T04:08:19;49.45;;;37.15;;
52574;SDS011;38468;48.114;-1.684;2023-06-14T04:10:20;54.42;;;39.58;;
52574;SDS011;38468;48.114;-1.684;2023-06-14T04:12:20;49.20;;;37.17;;
52574;SDS011;38468;48.114;-1.684;2023-06-14T04:14:21;64.03;;;40.38;;
52574;SDS011;38468;48.114;-1.684;2023-06-14T04:16:22;47.70;;;39.17;;
52574;SDS011;38468;48.114;-1.684;2023-06-14T04:18:23;46.15;;;35.75;;
52574;SDS011;38468;48.114;-1.684;2023-06-14T04:20:24;53.92;;;39.08;;
52574;SDS011;38468;48.114;-1.684;2023-06-14T04:22:25;49.47;;;37.03;;
52574;SDS011;38468;48.114;-1.684;2023-06-14T04:24:30;49.00;;;38.15;;
52574;SDS011;38468;48.114;-1.684;2023-06-14T04:26:32;52.58;;;38.55;;
52574;SDS011;38468;48.114;-1.684;2023-06-14T04:28:33;51.85;;;36.38;;
52574;SDS011;38468;48.114;-1.684;2023-06-14T04:30:37;44.13;;;36.42;;
52574;SDS011;38468;48.114;-1.684;2023-06-14T04:34:40;53.75;;;38.75;;
52574;SDS011;38468;48.114;-1.684;2023-06-14T04:36:41;44.20;;;35.20;;
52574;SDS011;38468;48.114;-1.684;2023-06-14T04:38:49;50.88;;;38.28;;
52574;SDS011;38468;48.114;-1.684;2023-06-14T04:40:49;44.72;;;35.58;;
52574;SDS011;38468;48.114;-1.684;2023-06-14T04:42:52;52.67;;;38.08;;
52574;SDS011;38468;48.114;-1.684;2023-06-14T04:44:54;49.85;;;36.97;;
52574;SDS011;38468;48.114;-1.684;2023-06-14T04:46:56;48.47;;;36.15;;
52574;SDS011;38468;48.114;-1.684;2023-06-14T04:48:58;51.80;;;38.15;;
52574;SDS011;38468;48.114;-1.684;2023-06-14T04:51:03;49.75;;;37.45;;
52574;SDS011;38468;48.114;-1.684;2023-06-14T04:53:04;43.88;;;34.25;;
52574;SDS011;38468;48.114;-1.684;2023-06-14T04:55:07;45.08;;;35.15;;
52574;SDS011;38468;48.114;-1.684;2023-06-14T04:57:08;44.35;;;33.70;;
52574;SDS011;38468;48.114;-1.684;2023-06-14T04:59:14;40.78;;;32.17;;
52574;SDS011;38468;48.114;-1.684;2023-06-14T05:01:14;49.92;;;36.88;;
52574;SDS011;38468;48.114;-1.684;2023-06-14T05:03:15;47.22;;;37.03;;
52574;SDS011;38468;48.114;-1.684;2023-06-14T05:05:18;40.58;;;33.08;;
52574;SDS011;38468;48.114;-1.684;2023-06-14T05:07:19;41.42;;;32.05;;
52574;SDS011;38468;48.114;-1.684;2023-06-14T05:09:20;46.40;;;33.92;;
52574;SDS011;38468;48.114;-1.684;2023-06-14T05:11:21;47.97;;;36.30;;
52574;SDS011;38468;48.114;-1.684;2023-06-14T05:13:24;44.92;;;36.33;;
52574;SDS011;38468;48.114;-1.684;2023-06-14T05:15:24;49.22;;;34.45;;
52574;SDS011;38468;48.114;-1.684;2023-06-14T05:17:25;41.78;;;31.58;;
52574;SDS011;38468;48.114;-1.684;2023-06-14T05:19:28;49.05;;;35.38;;
52574;SDS011;38468;48.114;-1.684;2023-06-14T05:21:28;40.55;;;33.15;;
52574;SDS011;38468;48.114;-1.684;2023-06-14T05:23:29;42.78;;;32.85;;
52574;SDS011;38468;48.114;-1.684;2023-06-14T05:25:30;41.85;;;33.22;;
52574;SDS011;38468;48.114;-1.684;2023-06-14T05:27:30;41.33;;;31.17;;
52574;SDS011;38468;48.114;-1.684;2023-06-14T05:29:31;41.08;;;32.42;;
52574;SDS011;38468;48.114;-1.684;2023-06-14T05:31:32;42.25;;;31.73;;
52574;SDS011;38468;48.114;-1.684;2023-06-14T05:33:32;51.70;;;32.90;;
52574;SDS011;38468;48.114;-1.684;2023-06-14T05:35:33;43.88;;;32.03;;
52574;SDS011;38468;48.114;-1.684;2023-06-14T05:37:34;41.17;;;30.98;;
52574;SDS011;38468;48.114;-1.684;2023-06-14T05:39:35;39.53;;;32.75;;
52574;SDS011;38468;48.114;-1.684;2023-06-14T05:41:35;43.80;;;31.20;;
52574;SDS011;38468;48.114;-1.684;2023-06-14T05:43:36;47.33;;;33.03;;
52574;SDS011;38468;48.114;-1.684;2023-06-14T05:45:36;43.60;;;31.73;;
52574;SDS011;38468;48.114;-1.684;2023-06-14T05:47:37;37.58;;;29.20;;
52574;SDS011;38468;48.114;-1.684;2023-06-14T05:49:38;35.60;;;28.75;;
52574;SDS011;38468;48.114;-1.684;2023-06-14T05:51:38;35.50;;;29.42;;
52574;SDS011;38468;48.114;-1.684;2023-06-14T05:53:39;37.42;;;28.67;;
52574;SDS011;38468;48.114;-1.684;2023-06-14T05:55:39;38.42;;;31.10;;
52574;SDS011;38468;48.114;-1.684;2023-06-14T05:57:40;33.10;;;27.20;;
52574;SDS011;38468;48.114;-1.684;2023-06-14T05:59:41;32.85;;;27.30;;
52574;SDS011;38468;48.114;-1.684;2023-06-14T06:01:42;37.33;;;27.98;;
52574;SDS011;38468;48.114;-1.684;2023-06-14T06:03:43;36.88;;;26.73;;
52574;SDS011;38468;48.114;-1.684;2023-06-14T06:07:46;37.63;;;28.55;;
52574;SDS011;38468;48.114;-1.684;2023-06-14T06:09:47;31.73;;;26.95;;
52574;SDS011;38468;48.114;-1.684;2023-06-14T06:11:47;34.90;;;24.65;;
52574;SDS011;38468;48.114;-1.684;2023-06-14T06:13:48;34.15;;;26.30;;
52574;SDS011;38468;48.114;-1.684;2023-06-14T06:15:49;35.42;;;24.77;;
52574;SDS011;38468;48.114;-1.684;2023-06-14T06:17:50;30.25;;;23.35;;
52574;SDS011;38468;48.114;-1.684;2023-06-14T06:19:51;29.40;;;25.13;;
52574;SDS011;38468;48.114;-1.684;2023-06-14T06:21:51;32.80;;;23.52;;
52574;SDS011;38468;48.114;-1.684;2023-06-14T06:23:52;32.42;;;24.20;;
52574;SDS011;38468;48.114;-1.684;2023-06-14T06:25:54;24.25;;;21.40;;
52574;SDS011;38468;48.114;-1.684;2023-06-14T06:27:55;29.13;;;22.85;;
52574;SDS011;38468;48.114;-1.684;2023-06-14T06:29:56;27.90;;;20.80;;
52574;SDS011;38468;48.114;-1.684;2023-06-14T06:31:57;27.67;;;22.67;;
52574;SDS011;38468;48.114;-1.684;2023-06-14T06:33:57;25.08;;;20.52;;
52574;SDS011;38468;48.114;-1.684;2023-06-14T06:35:58;29.33;;;25.33;;
52574;SDS011;38468;48.114;-1.684;2023-06-14T06:37:59;27.80;;;19.83;;
52574;SDS011;38468;48.114;-1.684;2023-06-14T06:40:00;27.23;;;20.63;;
52574;SDS011;38468;48.114;-1.684;2023-06-14T06:42:02;30.60;;;20.95;;
52574;SDS011;38468;48.114;-1.684;2023-06-14T06:44:03;29.75;;;21.48;;
52574;SDS011;38468;48.114;-1.684;2023-06-14T06:46:04;22.73;;;17.73;;
52574;SDS011;38468;48.114;-1.684;2023-06-14T06:48:04;25.70;;;19.52;;
52574;SDS011;38468;48.114;-1.684;2023-06-14T06:50:05;26.52;;;18.13;;
52574;SDS011;38468;48.114;-1.684;2023-06-14T06:52:07;28.65;;;18.52;;
52574;SDS011;38468;48.114;-1.684;2023-06-14T06:54:08;24.52;;;20.50;;
52574;SDS011;38468;48.114;-1.684;2023-06-14T06:56:09;26.05;;;18.05;;
52574;SDS011;38468;48.114;-1.684;2023-06-14T06:58:10;25.58;;;18.33;;
52574;SDS011;38468;48.114;-1.684;2023-06-14T07:00:12;19.02;;;16.83;;
52574;SDS011;38468;48.114;-1.684;2023-06-14T07:02:12;23.27;;;16.40;;
52574;SDS011;38468;48.114;-1.684;2023-06-14T07:04:13;21.00;;;17.15;;
52574;SDS011;38468;48.114;-1.684;2023-06-14T07:06:14;22.65;;;17.40;;
52574;SDS011;38468;48.114;-1.684;2023-06-14T07:08:17;19.42;;;16.80;;
52574;SDS011;38468;48.114;-1.684;2023-06-14T07:10:18;21.95;;;15.95;;
52574;SDS011;38468;48.114;-1.684;2023-06-14T07:12:18;23.42;;;18.58;;
52574;SDS011;38468;48.114;-1.684;2023-06-14T07:14:19;19.08;;;16.30;;
52574;SDS011;38468;48.114;-1.684;2023-06-14T07:16:23;21.30;;;15.98;;
52574;SDS011;38468;48.114;-1.684;2023-06-14T07:18:23;19.45;;;17.10;;
52574;SDS011;38468;48.114;-1.684;2023-06-14T07:20:24;23.20;;;17.23;;
52574;SDS011;38468;48.114;-1.684;2023-06-14T07:22:25;19.23;;;16.70;;
52574;SDS011;38468;48.114;-1.684;2023-06-14T07:24:26;19.77;;;16.48;;
52574;SDS011;38468;48.114;-1.684;2023-06-14T07:28:28;20.23;;;15.23;;
52574;SDS011;38468;48.114;-1.684;2023-06-14T07:30:29;16.43;;;14.70;;
52574;SDS011;38468;48.114;-1.684;2023-06-14T07:32:30;15.87;;;14.03;;
52574;SDS011;38468;48.114;-1.684;2023-06-14T07:34:30;19.30;;;15.23;;
52574;SDS011;38468;48.114;-1.684;2023-06-14T07:36:31;13.77;;;11.97;;
52574;SDS011;38468;48.114;-1.684;2023-06-14T07:38:32;14.70;;;11.93;;
52574;SDS011;38468;48.114;-1.684;2023-06-14T07:40:32;14.93;;;13.53;;
52574;SDS011;38468;48.114;-1.684;2023-06-14T07:42:34;17.20;;;13.97;;
52574;SDS011;38468;48.114;-1.684;2023-06-14T07:44:35;23.08;;;15.15;;
52574;SDS011;38468;48.114;-1.684;2023-06-14T07:46:36;17.27;;;12.40;;
52574;SDS011;38468;48.114;-1.684;2023-06-14T07:48:37;16.38;;;13.35;;
52574;SDS011;38468;48.114;-1.684;2023-06-14T07:50:38;16.03;;;13.40;;
52574;SDS011;38468;48.114;-1.684;2023-06-14T07:52:38;16.40;;;13.27;;
52574;SDS011;38468;48.114;-1.684;2023-06-14T07:54:39;17.70;;;12.65;;
52574;SDS011;38468;48.114;-1.684;2023-06-14T07:56:41;15.27;;;12.35;;
52574;SDS011;38468;48.114;-1.684;2023-06-14T07:58:41;14.20;;;12.83;;
52574;SDS011;38468;48.114;-1.684;2023-06-14T08:00:42;14.27;;;12.67;;
52574;SDS011;38468;48.114;-1.684;2023-06-14T08:02:43;13.07;;;11.77;;
52574;SDS011;38468;48.114;-1.684;2023-06-14T08:04:44;16.17;;;11.23;;
52574;SDS011;38468;48.114;-1.684;2023-06-14T08:06:45;17.58;;;10.88;;
52574;SDS011;38468;48.114;-1.684;2023-06-14T08:08:47;13.10;;;11.75;;
52574;SDS011;38468;48.114;-1.684;2023-06-14T08:10:48;13.30;;;11.87;;
52574;SDS011;38468;48.114;-1.684;2023-06-14T08:12:49;14.07;;;10.80;;
52574;SDS011;38468;48.114;-1.684;2023-06-14T08:14:52;14.30;;;10.45;;
52574;SDS011;38468;48.114;-1.684;2023-06-14T08:16:53;19.60;;;12.27;;
52574;SDS011;38468;48.114;-1.684;2023-06-14T08:18:55;16.77;;;10.97;;
52574;SDS011;38468;48.114;-1.684;2023-06-14T08:20:55;13.95;;;10.60;;
52574;SDS011;38468;48.114;-1.684;2023-06-14T08:22:57;12.20;;;9.75;;
52574;SDS011;38468;48.114;-1.684;2023-06-14T08:24:58;13.35;;;10.32;;
52574;SDS011;38468;48.114;-1.684;2023-06-14T08:26:59;13.93;;;9.80;;
52574;SDS011;38468;48.114;-1.684;2023-06-14T08:29:01;12.63;;;10.10;;
52574;SDS011;38468;48.114;-1.684;2023-06-14T08:31:01;11.43;;;9.70;;
52574;SDS011;38468;48.114;-1.684;2023-06-14T08:33:02;11.63;;;9.43;;
52574;SDS011;38468;48.114;-1.684;2023-06-14T08:35:03;13.67;;;10.80;;
52574;SDS011;38468;48.114;-1.684;2023-06-14T08:37:05;11.25;;;9.85;;
52574;SDS011;38468;48.114;-1.684;2023-06-14T08:39:06;12.55;;;9.02;;
52574;SDS011;38468;48.114;-1.684;2023-06-14T08:41:09;12.18;;;9.88;;
52574;SDS011;38468;48.114;-1.684;2023-06-14T08:43:13;13.98;;;10.00;;
52574;SDS011;38468;48.114;-1.684;2023-06-14T08:45:14;15.73;;;10.47;;
52574;SDS011;38468;48.114;-1.684;2023-06-14T08:47:15;10.80;;;9.80;;
52574;SDS011;38468;48.114;-1.684;2023-06-14T08:49:17;12.20;;;10.02;;
52574;SDS011;38468;48.114;-1.684;2023-06-14T08:51:18;13.65;;;10.13;;
52574;SDS011;38468;48.114;-1.684;2023-06-14T08:53:21;9.98;;;8.65;;
52574;SDS011;38468;48.114;-1.684;2023-06-14T08:55:23;12.18;;;8.35;;
52574;SDS011;38468;48.114;-1.684;2023-06-14T08:57:27;17.25;;;8.75;;
52574;SDS011;38468;48.114;-1.684;2023-06-14T08:59:30;12.52;;;8.95;;
52574;SDS011;38468;48.114;-1.684;2023-06-14T09:01:34;17.17;;;9.43;;
52574;SDS011;38468;48.114;-1.684;2023-06-14T09:03:36;14.88;;;8.70;;
52574;SDS011;38468;48.114;-1.684;2023-06-14T09:05:40;11.50;;;8.10;;
52574;SDS011;38468;48.114;-1.684;2023-06-14T09:07:41;12.23;;;9.30;;
52574;SDS011;38468;48.114;-1.684;2023-06-14T09:09:43;10.23;;;8.20;;
52574;SDS011;38468;48.114;-1.684;2023-06-14T09:11:44;10.13;;;7.75;;
52574;SDS011;38468;48.114;-1.684;2023-06-14T09:13:45;9.97;;;9.03;;
52574;SDS011;38468;48.114;-1.684;2023-06-14T09:15:46;12.35;;;8.15;;
52574;SDS011;38468;48.114;-1.684;2023-06-14T09:17:47;10.27;;;8.37;;
52574;SDS011;38468;48.114;-1.684;2023-06-14T09:19:48;14.15;;;8.70;;
52574;SDS011;38468;48.114;-1.684;2023-06-14T09:21:49;10.97;;;9.40;;
52574;SDS011;38468;48.114;-1.684;2023-06-14T09:23:49;11.30;;;8.43;;
52574;SDS011;38468;48.114;-1.684;2023-06-14T09:25:50;9.20;;;8.03;;
52574;SDS011;38468;48.114;-1.684;2023-06-14T09:27:51;15.00;;;8.43;;
52574;SDS011;38468;48.114;-1.684;2023-06-14T09:29:52;8.13;;;7.33;;
52574;SDS011;38468;48.114;-1.684;2023-06-14T09:31:53;9.50;;;8.18;;
52574;SDS011;38468;48.114;-1.684;2023-06-14T09:33:54;13.40;;;8.45;;
52574;SDS011;38468;48.114;-1.684;2023-06-14T09:35:56;18.30;;;13.85;;
52574;SDS011;38468;48.114;-1.684;2023-06-14T09:37:57;9.43;;;8.43;;
52574;SDS011;38468;48.114;-1.684;2023-06-14T09:39:58;12.37;;;9.60;;
52574;SDS011;38468;48.114;-1.684;2023-06-14T09:41:59;11.90;;;8.45;;
52574;SDS011;38468;48.114;-1.684;2023-06-14T09:44:00;11.20;;;9.33;;
52574;SDS011;38468;48.114;-1.684;2023-06-14T09:46:02;10.55;;;8.55;;
52574;SDS011;38468;48.114;-1.684;2023-06-14T09:48:04;8.80;;;7.32;;
52574;SDS011;38468;48.114;-1.684;2023-06-14T09:50:06;12.25;;;7.63;;
52574;SDS011;38468;48.114;-1.684;2023-06-14T09:52:09;13.32;;;7.45;;
52574;SDS011;38468;48.114;-1.684;2023-06-14T09:54:22;15.90;;;9.05;;
52574;SDS011;38468;48.114;-1.684;2023-06-14T09:56:27;9.23;;;7.60;;
52574;SDS011;38468;48.114;-1.684;2023-06-14T09:58:31;9.00;;;7.25;;
52574;SDS011;38468;48.114;-1.684;2023-06-14T10:00:36;9.02;;;8.13;;
52574;SDS011;38468;48.114;-1.684;2023-06-14T10:02:39;9.18;;;7.82;;
52574;SDS011;38468;48.114;-1.684;2023-06-14T10:04:44;9.98;;;7.80;;
52574;SDS011;38468;48.114;-1.684;2023-06-14T10:06:49;9.55;;;7.05;;
52574;SDS011;38468;48.114;-1.684;2023-06-14T10:08:52;12.07;;;7.40;;
52574;SDS011;38468;48.114;-1.684;2023-06-14T10:10:57;14.75;;;7.85;;
52574;SDS011;38468;48.114;-1.684;2023-06-14T10:12:57;7.67;;;7.03;;
52574;SDS011;38468;48.114;-1.684;2023-06-14T10:14:58;8.07;;;7.20;;
52574;SDS011;38468;48.114;-1.684;2023-06-14T10:17:09;10.45;;;8.20;;
52574;SDS011;38468;48.114;-1.684;2023-06-14T10:19:19;8.27;;;7.47;;
52574;SDS011;38468;48.114;-1.684;2023-06-14T10:23:46;9.82;;;6.72;;
52574;SDS011;38468;48.114;-1.684;2023-06-14T10:25:56;11.18;;;8.18;;
52574;SDS011;38468;48.114;-1.684;2023-06-14T10:28:14;11.50;;;7.82;;
52574;SDS011;38468;48.114;-1.684;2023-06-14T10:32:25;9.50;;;7.35;;
52574;SDS011;38468;48.114;-1.684;2023-06-14T10:34:31;12.13;;;7.97;;
52574;SDS011;38468;48.114;-1.684;2023-06-14T10:36:31;11.18;;;8.00;;
52574;SDS011;38468;48.114;-1.684;2023-06-14T10:38:35;10.10;;;6.70;;
52574;SDS011;38468;48.114;-1.684;2023-06-14T10:40:37;9.75;;;6.88;;
52574;SDS011;38468;48.114;-1.684;2023-06-14T10:42:39;8.95;;;7.35;;
52574;SDS011;38468;48.114;-1.684;2023-06-14T10:44:52;14.43;;;7.30;;
52574;SDS011;38468;48.114;-1.684;2023-06-14T10:47:00;9.02;;;7.50;;
52574;SDS011;38468;48.114;-1.684;2023-06-14T10:49:01;11.07;;;7.85;;
52574;SDS011;38468;48.114;-1.684;2023-06-14T10:51:03;13.05;;;7.63;;
52574;SDS011;38468;48.114;-1.684;2023-06-14T10:53:21;8.33;;;7.63;;
52574;SDS011;38468;48.114;-1.684;2023-06-14T10:55:22;10.52;;;9.10;;
52574;SDS011;38468;48.114;-1.684;2023-06-14T10:57:24;8.93;;;7.65;;
52574;SDS011;38468;48.114;-1.684;2023-06-14T10:59:25;194.80;;;146.52;;
52574;SDS011;38468;48.114;-1.684;2023-06-14T11:01:36;254.80;;;203.53;;
52574;SDS011;38468;48.114;-1.684;2023-06-14T11:05:58;215.52;;;162.55;;
52574;SDS011;38468;48.114;-1.684;2023-06-14T11:12:20;85.82;;;66.32;;
52574;SDS011;38468;48.114;-1.684;2023-06-14T11:14:22;41.40;;;31.02;;
52574;SDS011;38468;48.114;-1.684;2023-06-14T11:16:25;70.30;;;55.10;;
52574;SDS011;38468;48.114;-1.684;2023-06-14T11:18:28;29.10;;;20.58;;
52574;SDS011;38468;48.114;-1.684;2023-06-14T11:20:30;54.67;;;39.38;;
52574;SDS011;38468;48.114;-1.684;2023-06-14T11:22:38;77.88;;;59.25;;
52574;SDS011;38468;48.114;-1.684;2023-06-14T11:24:39;25.38;;;22.65;;
52574;SDS011;38468;48.114;-1.684;2023-06-14T11:26:40;59.83;;;44.50;;
52574;SDS011;38468;48.114;-1.684;2023-06-14T11:28:41;25.38;;;20.83;;
52574;SDS011;38468;48.114;-1.684;2023-06-14T11:30:42;63.30;;;46.83;;
52574;SDS011;38468;48.114;-1.684;2023-06-14T11:32:45;18.57;;;13.70;;
52574;SDS011;38468;48.114;-1.684;2023-06-14T11:34:50;106.00;;;82.88;;
52574;SDS011;38468;48.114;-1.684;2023-06-14T11:36:51;50.17;;;40.43;;
52574;SDS011;38468;48.114;-1.684;2023-06-14T11:38:57;118.40;;;94.43;;
52574;SDS011;38468;48.114;-1.684;2023-06-14T11:41:07;22.95;;;16.27;;
52574;SDS011;38468;48.114;-1.684;2023-06-14T11:43:08;21.93;;;16.40;;
52574;SDS011;38468;48.114;-1.684;2023-06-14T11:45:09;22.67;;;15.43;;
52574;SDS011;38468;48.114;-1.684;2023-06-14T11:47:11;54.65;;;42.10;;
52574;SDS011;38468;48.114;-1.684;2023-06-14T11:49:11;17.13;;;10.63;;
52574;SDS011;38468;48.114;-1.684;2023-06-14T11:51:12;18.00;;;12.97;;
52574;SDS011;38468;48.114;-1.684;2023-06-14T11:53:13;15.77;;;11.60;;
52574;SDS011;38468;48.114;-1.684;2023-06-14T11:55:14;21.58;;;16.25;;
52574;SDS011;38468;48.114;-1.684;2023-06-14T11:57:15;18.20;;;12.53;;
52574;SDS011;38468;48.114;-1.684;2023-06-14T11:59:18;21.95;;;16.02;;
52574;SDS011;38468;48.114;-1.684;2023-06-14T12:01:20;13.35;;;9.80;;
52574;SDS011;38468;48.114;-1.684;2023-06-14T12:03:24;11.37;;;7.57;;
52574;SDS011;38468;48.114;-1.684;2023-06-14T12:05:28;47.40;;;39.65;;
52574;SDS011;38468;48.114;-1.684;2023-06-14T12:07:29;14.17;;;10.63;;
52574;SDS011;38468;48.114;-1.684;2023-06-14T12:09:31;15.00;;;11.35;;
52574;SDS011;38468;48.114;-1.684;2023-06-14T12:11:34;9.35;;;8.45;;
52574;SDS011;38468;48.114;-1.684;2023-06-14T12:13:37;20.48;;;18.30;;
52574;SDS011;38468;48.114;-1.684;2023-06-14T12:15:40;42.00;;;30.15;;
52574;SDS011;38468;48.114;-1.684;2023-06-14T12:17:42;15.13;;;10.03;;